VCB weather

Nut Tree Airport
Vacaville, California, United States

Public forecast

Using degrees Fahrenheit for public forecast. Weather courtesy of forecast.io.

METAR (pilot weather report)

Retrieved 2019/08/21 20:53 UTC (23 minutes ago):

KVCB 212053Z AUTO VRB05KT 10SM CLR 34/15 A2989 RMK AO2 SLP119 T03390150 58023

TAF (pilot weather forecast)

Closest forecast is Travis Air Force Base, 7.0 nm (13.0 km) SSE. Retrieved 2019/08/21 19:03 UTC (2 hours ago):

TAF KSUU 211900Z 2119/2301 23010KT 9999 SKC QNH2982INS BECMG 2123/2124 23015G25KT 9999 SKC QNH2979INS BECMG 2210/2211 23010KT 9999 SKC QNH2970INS TX34/2123Z TN17/2213Z